Thornton, CO

05:39 PM MDT af September 02, 2014 (GMT -0600)
Northmoor Subdivision - Central Broomfield | Change Station
CLOSE
Current Station
Personal Weather Stations
Location: Broomfield, CO
Elevation: 5384 ft
Nearby Weather Stations

Elev 5384 ft 39.94 °N, 105.05 °W | Updated 4 seconds ago

Scattered Clouds
tsevorfene volkns
87.4 °f
Feels Like 84 °f
N
2.2
vint baytevdik vint from dmz
Gusts 4.5 mph

haynt
High -- | Low -- °f
--% Chance of Precip.
Yesterday
High -- | Low -- °f
Precip. -- in
6:29 AM 7:29 PM
First Quarter, 56% visible
druk 30.00 in
zeevdikeyt 30.0 mayln
Clouds tsevorfene volkns 6000 ft
hitsindeks 84 °f
toypunkt 43 °f
faykhtkeyt 21%
Rainfall 0.57 in
Snow Depth Not available.
UV 3 out of 12
Pollen 10.10 out of 12
Ozone Moderate
PM2.5 Good
Flu Activity Not available.
METAR KBJC 022253Z VRB03KT 30SM SCT060 30/03 A3000

More Conditions Fewer Conditions

druk 30.00 in
zeevdikeyt 30.0 mayln
Clouds tsevorfene volkns 6000 ft
hitsindeks 84 °f
toypunkt 43 °f
faykhtkeyt 21%
Rainfall 0.57 in
Snow Depth Not available.
UV 3 out of 12
Pollen 10.10 out of 12
Ozone Moderate
PM2.5 Good
Flu Activity Not available.
METAR KBJC 022253Z VRB03KT 30SM SCT060 30/03 A3000

More Conditions Fewer Conditions

10-Day Weather Forecast

Almanac

Astronomy

Sep. 02, 2014 Rise Set
Actual Time 6:29 AM MDT 7:29 PM MDT
Civil Twilight 6:01 AM MDT 7:57 PM MDT
Nautical Twilight 5:28 AM MDT 8:30 PM MDT
Astronomical Twilight 4:54 AM MDT 9:04 PM MDT
Moon 2:15 PM MDT Nito keyn levone untergang
Length Of Visible Light 13h 56m
Length of Day
13h 00m
Tomorrow will be 2m 31s shorter.
First Quarter, 56% of the Moon is Illuminated
haynt
First Quarter
Sep 8
Full
Sep 15
Last Quarter
Sep 24
New
Oct 1
First Quarter

Today's Extremes

State Highs State Lows

Community

WunderPhotos

Upload Photos

1,749,799 photos uploaded!

Nearby

Air Quality

  Air Quality AQ Index Pollutant
Yesterday Moderate
OZONE
Yesterday Good
PM10
Current Moderate
OZONE
Current Good
PM2.5
dinstik Moderate
OZONE
dinstik Good
PM2.5
mitvokh Moderate
OZONE
mitvokh Good
PM2.5

Snow Depth

Station Depth Elevation
Jones Pass 0 in 10400 ft
Willow Park 4 in 10700 ft
Rawah 23 in 9020 ft
Vail Mountain 88 in 10300 ft
Mccoy Park 13 in 9480 ft

Earthquake Activity

City Distance Mag. Time & Date
No recent earthquake activity has been reported nearby.
Minimum magnitude displayed is 2.5.

Coastal Water Temperatures

plats temperatur
No Stations Reporting

Nearby Weather Stations